createdAt,value
2023-04-21T00:02:00.108Z,99.52
2023-04-21T00:04:30.728Z,99.04
2023-04-21T00:07:03.733Z,99.36
2023-04-21T00:09:34.476Z,100.00
2023-04-21T00:12:06.390Z,98.59
2023-04-21T00:14:43.958Z,98.11
2023-04-21T00:17:13.637Z,97.47
2023-04-21T00:19:42.336Z,98.90
2023-04-21T00:22:15.121Z,99.47
2023-04-21T00:24:44.341Z,98.52
2023-04-21T00:27:19.521Z,99.00
2023-04-21T00:29:51.913Z,99.15
2023-04-21T00:32:21.646Z,98.79
2023-04-21T00:34:52.321Z,98.20
2023-04-21T00:37:24.630Z,98.58
2023-04-21T00:39:53.241Z,99.13
2023-04-21T00:42:30.245Z,99.20
2023-04-21T00:45:12.033Z,98.61
2023-04-21T00:47:43.675Z,98.55
2023-04-21T00:50:21.261Z,98.46
2023-04-21T00:52:53.457Z,98.38
2023-04-21T00:55:22.649Z,98.87
2023-04-21T00:57:52.348Z,99.20
2023-04-21T01:00:22.731Z,98.97
2023-04-21T01:02:57.008Z,98.08
2023-04-21T01:05:29.447Z,99.01
2023-04-21T01:08:00.301Z,99.39
2023-04-21T01:10:43.390Z,99.34
2023-04-21T01:13:24.452Z,99.50
2023-04-21T01:16:03.335Z,99.25
2023-04-21T01:18:40.068Z,98.92
2023-04-21T01:21:08.978Z,99.17
2023-04-21T01:23:47.779Z,100.00
2023-04-21T01:26:28.114Z,100.00
2023-04-21T01:29:01.384Z,100.00
2023-04-21T01:31:30.304Z,99.27
2023-04-21T01:34:00.250Z,100.00
2023-04-21T01:36:32.242Z,99.64
2023-04-21T01:39:06.645Z,100.00
2023-04-21T01:41:40.629Z,99.63
2023-04-21T01:44:18.435Z,100.00
2023-04-21T01:46:50.069Z,100.00
2023-04-21T01:49:21.563Z,99.99
2023-04-21T01:51:51.236Z,100.00
2023-04-21T01:54:29.187Z,100.00
2023-04-21T01:57:06.209Z,100.00
2023-04-21T01:59:39.799Z,100.00
2023-04-21T02:02:08.607Z,100.00
2023-04-21T02:04:38.128Z,100.00
2023-04-21T02:07:10.909Z,100.00
2023-04-21T02:09:51.993Z,100.00
2023-04-21T02:12:21.126Z,100.00
2023-04-21T02:14:53.280Z,100.00
2023-04-21T02:17:23.339Z,100.00
2023-04-21T02:19:53.125Z,100.00
2023-04-21T02:22:29.587Z,100.00
2023-04-21T02:25:03.158Z,100.00
2023-04-21T02:27:33.641Z,100.00
2023-04-21T02:30:03.983Z,100.00
2023-04-21T02:32:33.872Z,100.00
2023-04-21T02:35:03.064Z,100.00
2023-04-21T02:37:34.441Z,100.00
2023-04-21T02:40:07.138Z,100.00
2023-04-21T02:42:38.038Z,100.00
2023-04-21T02:45:08.548Z,100.00
2023-04-21T02:47:37.404Z,100.00
2023-04-21T02:50:08.096Z,100.00
2023-04-21T02:52:37.875Z,100.00
2023-04-21T02:55:22.679Z,100.00
2023-04-21T02:57:56.927Z,100.00
2023-04-21T03:00:29.026Z,100.00
2023-04-21T03:02:59.808Z,100.00
2023-04-21T03:05:33.317Z,100.00
2023-04-21T03:08:09.788Z,100.00
2023-04-21T03:10:42.695Z,100.00
2023-04-21T03:13:18.670Z,100.00
2023-04-21T03:15:48.237Z,100.00
2023-04-21T03:18:20.589Z,100.00
2023-04-21T03:21:02.106Z,100.00
2023-04-21T03:23:30.214Z,100.00
2023-04-21T03:26:04.684Z,100.00
2023-04-21T03:28:36.531Z,100.00
2023-04-21T03:31:05.487Z,100.00
2023-04-21T03:33:39.577Z,100.00
2023-04-21T03:36:28.453Z,100.00
2023-04-21T03:39:12.738Z,100.00
2023-04-21T03:41:52.171Z,100.00
2023-04-21T03:44:23.359Z,100.00
2023-04-21T03:46:54.972Z,100.00
2023-04-21T03:49:26.903Z,100.00
2023-04-21T03:52:06.299Z,100.00
2023-04-21T03:54:34.359Z,100.00
2023-04-21T03:57:06.888Z,100.00
2023-04-21T03:59:36.429Z,100.00
2023-04-21T04:02:08.469Z,100.00
2023-04-21T04:04:44.784Z,100.00
2023-04-21T04:07:14.738Z,100.00
2023-04-21T04:09:51.992Z,100.00
2023-04-21T04:12:27.601Z,100.00
2023-04-21T04:14:57.078Z,100.00
2023-04-21T04:17:27.810Z,100.00
2023-04-21T04:19:58.242Z,100.00
2023-04-21T04:22:26.690Z,100.00
2023-04-21T04:25:06.123Z,100.00
2023-04-21T04:27:35.630Z,100.00
2023-04-21T04:30:05.666Z,100.00
2023-04-21T04:32:34.668Z,100.00
2023-04-21T04:35:04.600Z,100.00
2023-04-21T04:37:34.861Z,100.00
2023-04-21T04:40:13.768Z,100.00
2023-04-21T04:42:57.945Z,100.00
2023-04-21T04:45:38.499Z,100.00
2023-04-21T04:48:15.535Z,100.00
2023-04-21T04:50:46.344Z,100.00
2023-04-21T04:53:25.502Z,100.00
2023-04-21T04:55:56.901Z,100.00
2023-04-21T04:58:31.786Z,100.00
2023-04-21T05:01:12.646Z,100.00
2023-04-21T05:03:43.028Z,100.00
2023-04-21T05:06:14.139Z,100.00
2023-04-21T05:08:48.470Z,100.00
2023-04-21T05:11:19.481Z,100.00
2023-04-21T05:13:57.494Z,100.00
2023-04-21T05:16:31.037Z,100.00
2023-04-21T05:19:11.991Z,100.00
2023-04-21T05:21:42.426Z,99.79
2023-04-21T05:24:13.035Z,100.00
2023-04-21T05:26:51.106Z,100.00
2023-04-21T05:29:24.327Z,99.76
2023-04-21T05:31:54.954Z,99.87
2023-04-21T05:34:34.907Z,98.38
2023-04-21T05:37:07.121Z,98.96
2023-04-21T05:39:36.018Z,98.16
2023-04-21T05:42:06.924Z,98.65
2023-04-21T05:44:41.017Z,97.81
2023-04-21T05:47:11.418Z,98.67
2023-04-21T05:49:45.319Z,98.90
2023-04-21T05:52:23.609Z,98.88
2023-04-21T05:54:57.115Z,97.75
2023-04-21T05:57:26.103Z,97.18
2023-04-21T05:59:58.162Z,96.60
2023-04-21T06:02:29.796Z,96.79
2023-04-21T06:04:59.795Z,95.92
2023-04-21T06:07:28.586Z,95.87
2023-04-21T06:10:06.456Z,95.23
2023-04-21T06:12:37.743Z,94.84
2023-04-21T06:15:14.286Z,94.25
2023-04-21T06:17:42.899Z,94.63
2023-04-21T06:20:20.925Z,94.96
2023-04-21T06:22:56.317Z,94.06
2023-04-21T06:25:27.179Z,94.46
2023-04-21T06:27:58.308Z,93.33
2023-04-21T06:30:34.514Z,92.59
2023-04-21T06:33:12.286Z,93.11
2023-04-21T06:35:49.600Z,92.86
2023-04-21T06:38:20.279Z,92.27
2023-04-21T06:40:52.475Z,92.40
2023-04-21T06:43:21.522Z,92.38
2023-04-21T06:45:57.877Z,91.50
2023-04-21T06:48:32.520Z,91.24
2023-04-21T06:51:05.387Z,90.26
2023-04-21T06:53:50.056Z,88.78
2023-04-21T06:56:23.992Z,88.33
2023-04-21T06:58:54.680Z,87.80
2023-04-21T07:01:26.832Z,86.61
2023-04-21T07:03:57.880Z,86.91
2023-04-21T07:06:29.138Z,86.66
2023-04-21T07:09:01.503Z,86.17
2023-04-21T07:11:31.291Z,85.96
2023-04-21T07:14:02.370Z,85.54
2023-04-21T07:16:45.996Z,84.81
2023-04-21T07:19:16.310Z,84.07
2023-04-21T07:21:52.412Z,82.93
2023-04-21T07:24:24.663Z,82.46
2023-04-21T07:27:02.671Z,81.93
2023-04-21T07:29:32.057Z,81.48
2023-04-21T07:32:02.835Z,80.39
2023-04-21T07:34:42.068Z,80.02
2023-04-21T07:37:11.601Z,80.05
2023-04-21T07:39:40.041Z,79.63
2023-04-21T07:42:09.738Z,79.48
2023-04-21T07:44:39.204Z,78.72
2023-04-21T07:47:14.019Z,77.75
2023-04-21T07:49:51.092Z,77.01
2023-04-21T07:52:21.095Z,76.69
2023-04-21T07:54:54.021Z,75.94
2023-04-21T07:57:25.068Z,75.36
2023-04-21T07:59:56.631Z,74.23
2023-04-21T08:02:30.710Z,72.86
2023-04-21T08:04:59.131Z,72.36
2023-04-21T08:07:28.918Z,71.93
2023-04-21T08:10:00.702Z,70.94
2023-04-21T08:12:30.461Z,70.56
2023-04-21T08:15:05.928Z,69.80
2023-04-21T08:17:40.701Z,69.56
2023-04-21T08:20:12.923Z,69.20
2023-04-21T08:22:48.369Z,69.29
2023-04-21T08:25:22.970Z,68.99
2023-04-21T08:27:51.734Z,69.07
2023-04-21T08:30:29.460Z,68.44
2023-04-21T08:33:14.055Z,68.00
2023-04-21T08:35:59.245Z,67.86
2023-04-21T08:38:31.367Z,67.23
2023-04-21T08:41:01.162Z,64.98
2023-04-21T08:43:33.161Z,64.78
2023-04-21T08:46:11.775Z,62.99
2023-04-21T08:48:47.732Z,62.00
2023-04-21T08:51:25.589Z,60.15
2023-04-21T08:54:04.569Z,60.40
2023-04-21T08:56:33.954Z,59.82
2023-04-21T08:59:10.254Z,58.92
2023-04-21T09:02:15.184Z,58.30
2023-04-21T09:04:48.041Z,58.41
2023-04-21T09:07:36.292Z,58.42
2023-04-21T09:10:07.593Z,58.74
2023-04-21T09:12:45.406Z,58.63
2023-04-21T09:15:16.573Z,58.03
2023-04-21T09:17:49.186Z,57.74
2023-04-21T09:20:25.732Z,57.22
2023-04-21T09:22:57.661Z,57.17
2023-04-21T09:25:26.314Z,57.64
2023-04-21T09:27:56.137Z,56.62
2023-04-21T09:30:27.811Z,55.88
2023-04-21T09:33:00.318Z,54.09
2023-04-21T09:35:39.338Z,51.75
2023-04-21T09:38:25.881Z,51.16
2023-04-21T09:41:01.419Z,50.41
2023-04-21T09:43:30.784Z,50.41
2023-04-21T09:46:02.406Z,50.43
2023-04-21T09:48:41.051Z,49.50
2023-04-21T09:51:37.427Z,49.36
2023-04-21T09:56:57.730Z,47.15
2023-04-21T09:59:30.715Z,45.57
2023-04-21T10:02:03.580Z,45.34
2023-04-21T10:04:37.532Z,45.12
2023-04-21T10:07:13.626Z,45.24
2023-04-21T10:09:48.264Z,45.40
2023-04-21T10:12:19.497Z,45.15
2023-04-21T10:14:50.926Z,44.00
2023-04-21T10:17:27.899Z,41.50
2023-04-21T10:20:07.076Z,41.08
2023-04-21T10:22:42.000Z,40.69
2023-04-21T10:25:15.768Z,40.39
2023-04-21T10:27:45.387Z,40.46
2023-04-21T10:30:29.338Z,40.96
2023-04-21T10:33:05.636Z,41.10
2023-04-21T10:36:04.128Z,39.54
2023-04-21T10:38:58.058Z,39.96
2023-04-21T10:41:28.316Z,40.32
2023-04-21T10:43:59.621Z,39.49
2023-04-21T10:46:36.943Z,39.03
2023-04-21T10:49:12.893Z,40.30
2023-04-21T10:52:08.661Z,40.29
2023-04-21T10:55:07.669Z,40.98
2023-04-21T10:57:48.077Z,41.43
2023-04-21T11:00:23.080Z,40.68
2023-04-21T11:03:02.767Z,37.70
2023-04-21T11:05:38.966Z,37.48
2023-04-21T11:08:13.377Z,38.09
2023-04-21T11:11:11.096Z,37.62
2023-04-21T11:13:47.277Z,37.95
2023-04-21T11:16:20.444Z,37.81
2023-04-21T11:18:51.804Z,37.92
2023-04-21T11:21:24.810Z,37.08
2023-04-21T11:24:04.998Z,36.89
2023-04-21T11:26:45.133Z,36.64
2023-04-21T11:29:14.766Z,36.06
2023-04-21T11:31:51.371Z,34.79
2023-04-21T11:34:24.821Z,34.23
2023-04-21T11:36:55.868Z,33.86
2023-04-21T11:39:26.089Z,34.24
2023-04-21T11:41:58.754Z,34.34
2023-04-21T11:44:37.739Z,34.24
2023-04-21T11:47:23.176Z,34.27
2023-04-21T11:49:58.036Z,33.69
2023-04-21T11:52:39.473Z,33.27
2023-04-21T11:55:15.475Z,32.34
2023-04-21T11:57:56.236Z,31.77
2023-04-21T12:00:27.644Z,31.70
2023-04-21T12:02:57.601Z,31.30
2023-04-21T12:05:38.564Z,30.54
2023-04-21T12:08:09.801Z,31.11
2023-04-21T12:10:40.907Z,31.09
2023-04-21T12:13:13.521Z,31.01
2023-04-21T12:15:46.126Z,31.04
2023-04-21T12:18:24.343Z,29.87
2023-04-21T12:20:56.112Z,30.10
2023-04-21T12:23:25.259Z,30.16
2023-04-21T12:25:56.565Z,30.17
2023-04-21T12:28:38.613Z,29.58
2023-04-21T12:31:15.726Z,29.98
2023-04-21T12:33:47.345Z,30.16
2023-04-21T12:36:22.207Z,30.09
2023-04-21T12:38:54.384Z,30.27
2023-04-21T12:41:23.663Z,30.55
2023-04-21T12:43:57.618Z,30.03
2023-04-21T12:46:27.385Z,29.46
2023-04-21T12:48:58.522Z,30.24
2023-04-21T12:51:31.707Z,30.47
2023-04-21T12:54:03.227Z,29.73
2023-04-21T12:56:32.588Z,29.33
2023-04-21T12:59:12.140Z,28.83
2023-04-21T13:01:52.431Z,28.37
2023-04-21T13:04:27.479Z,28.21
2023-04-21T13:06:58.874Z,27.68
2023-04-21T13:09:33.495Z,27.22
2023-04-21T13:12:12.789Z,26.80
2023-04-21T13:14:46.556Z,26.63
2023-04-21T13:17:19.332Z,26.62
2023-04-21T13:19:50.850Z,26.59
2023-04-21T13:22:21.593Z,27.00
2023-04-21T13:24:49.633Z,26.99
2023-04-21T13:27:28.271Z,26.89
2023-04-21T13:30:03.796Z,26.75
2023-04-21T13:32:37.137Z,26.89
2023-04-21T13:35:09.268Z,26.72
2023-04-21T13:37:41.262Z,26.80
2023-04-21T13:40:14.657Z,26.45
2023-04-21T13:42:49.296Z,26.67
2023-04-21T13:45:27.361Z,26.66
2023-04-21T13:48:06.951Z,26.78
2023-04-21T13:50:35.301Z,26.82
2023-04-21T13:53:07.056Z,27.03
2023-04-21T13:55:36.702Z,26.61
2023-04-21T13:58:06.926Z,26.62
2023-04-21T14:00:44.875Z,26.27
2023-04-21T14:03:16.782Z,26.26
2023-04-21T14:05:47.312Z,26.50
2023-04-21T14:08:16.486Z,26.29
2023-04-21T14:10:55.154Z,26.41
2023-04-21T14:13:35.770Z,26.50
2023-04-21T14:16:32.013Z,26.07
2023-04-21T14:19:08.302Z,26.48
2023-04-21T14:21:37.865Z,26.55
2023-04-21T14:24:07.382Z,26.36
2023-04-21T14:26:35.801Z,26.93
2023-04-21T14:29:06.641Z,27.13
2023-04-21T14:31:36.654Z,27.57
2023-04-21T14:34:05.565Z,27.91
2023-04-21T14:36:35.790Z,28.45
2023-04-21T14:39:05.843Z,28.05
2023-04-21T14:41:37.809Z,29.03
2023-04-21T14:44:06.552Z,29.45
2023-04-21T14:46:37.464Z,29.67
2023-04-21T14:49:13.774Z,30.42
2023-04-21T14:51:43.165Z,31.15
2023-04-21T14:54:14.212Z,32.27
2023-04-21T14:56:42.262Z,32.50
2023-04-21T14:59:18.612Z,32.13
2023-04-21T15:02:08.174Z,31.92
2023-04-21T15:04:43.175Z,32.16
2023-04-21T15:07:12.739Z,32.91
2023-04-21T15:09:45.827Z,32.22
2023-04-21T15:12:25.674Z,31.71
2023-04-21T15:14:59.461Z,31.38
2023-04-21T15:17:34.121Z,30.62
2023-04-21T15:20:02.722Z,30.87
2023-04-21T15:22:32.124Z,30.50
2023-04-21T15:25:03.060Z,30.66
2023-04-21T15:27:33.491Z,30.63
2023-04-21T15:30:04.689Z,30.92
2023-04-21T15:32:51.877Z,30.82
2023-04-21T15:35:25.208Z,30.93
2023-04-21T15:38:01.941Z,30.66
2023-04-21T15:40:34.201Z,29.71
2023-04-21T15:43:03.813Z,29.53
2023-04-21T15:45:36.879Z,29.38
2023-04-21T15:48:12.153Z,29.38
2023-04-21T15:50:40.445Z,29.60
2023-04-21T15:53:10.155Z,30.94
2023-04-21T15:55:38.805Z,31.96
2023-04-21T15:58:08.462Z,32.54
2023-04-21T16:00:41.298Z,32.78
2023-04-21T16:03:25.303Z,33.14
2023-04-21T16:05:59.505Z,33.44
2023-04-21T16:08:33.407Z,33.42
2023-04-21T16:11:02.891Z,33.44
2023-04-21T16:13:34.835Z,33.49
2023-04-21T16:16:07.294Z,33.89
2023-04-21T16:18:42.254Z,33.50
2023-04-21T16:21:13.409Z,32.14
2023-04-21T16:23:41.940Z,31.98
2023-04-21T16:26:19.024Z,33.03
2023-04-21T16:29:02.228Z,33.73
2023-04-21T16:31:30.955Z,33.84
2023-04-21T16:34:00.960Z,34.36
2023-04-21T16:36:31.471Z,33.23
2023-04-21T16:39:08.716Z,31.80
2023-04-21T16:41:40.580Z,31.04
2023-04-21T16:44:18.373Z,31.11
2023-04-21T16:46:46.798Z,30.99
2023-04-21T16:49:21.321Z,31.13
2023-04-21T16:51:49.548Z,31.56
2023-04-21T16:54:21.372Z,31.52
2023-04-21T16:56:51.804Z,32.72
2023-04-21T16:59:26.412Z,33.02
2023-04-21T17:01:55.558Z,33.46
2023-04-21T17:04:33.586Z,33.98
2023-04-21T17:07:05.111Z,34.37
2023-04-21T17:09:36.847Z,34.61
2023-04-21T17:12:08.233Z,34.67
2023-04-21T17:14:39.178Z,35.19
2023-04-21T17:17:11.651Z,35.07
2023-04-21T17:19:41.948Z,35.52
2023-04-21T17:22:16.133Z,36.00
2023-04-21T17:24:53.253Z,36.39
2023-04-21T17:27:25.060Z,37.00
2023-04-21T17:29:56.890Z,37.14
2023-04-21T17:32:26.591Z,37.67
2023-04-21T17:34:59.248Z,38.02
2023-04-21T17:37:31.081Z,38.45
2023-04-21T17:40:02.868Z,38.60
2023-04-21T17:42:32.868Z,38.86
2023-04-21T17:45:19.792Z,39.15
2023-04-21T17:47:50.098Z,39.59
2023-04-21T17:50:32.848Z,39.90
2023-04-21T17:53:02.987Z,40.23
2023-04-21T17:55:32.405Z,40.35
2023-04-21T17:58:12.241Z,40.89
2023-04-21T18:00:49.649Z,41.13
2023-04-21T18:03:28.376Z,41.29
2023-04-21T18:06:02.155Z,41.48
2023-04-21T18:08:41.240Z,42.09
2023-04-21T18:11:14.611Z,42.35
2023-04-21T18:13:52.014Z,42.58
2023-04-21T18:16:23.032Z,42.93
2023-04-21T18:18:57.808Z,43.29
2023-04-21T18:21:36.461Z,43.74
2023-04-21T18:24:06.832Z,43.99
2023-04-21T18:26:44.337Z,43.99
2023-04-21T18:29:17.509Z,44.29
2023-04-21T18:31:47.739Z,44.56
2023-04-21T18:34:17.876Z,44.84
2023-04-21T18:36:50.282Z,45.20
2023-04-21T18:39:21.332Z,45.25
2023-04-21T18:42:03.611Z,45.45
2023-04-21T18:44:45.652Z,45.68
2023-04-21T18:47:21.124Z,46.27
2023-04-21T18:49:56.802Z,45.99
2023-04-21T18:52:43.427Z,45.87
2023-04-21T18:55:26.202Z,45.98
2023-04-21T18:57:56.713Z,46.64
2023-04-21T19:00:25.609Z,46.93
2023-04-21T19:02:56.896Z,46.83
2023-04-21T19:05:29.584Z,46.83
2023-04-21T19:08:10.169Z,46.81
2023-04-21T19:10:56.824Z,46.96
2023-04-21T19:13:35.343Z,46.87
2023-04-21T19:16:10.898Z,46.96
2023-04-21T19:18:50.003Z,46.81
2023-04-21T19:21:23.997Z,47.24
2023-04-21T19:24:12.405Z,47.54
2023-04-21T19:26:43.318Z,48.23
2023-04-21T19:29:18.005Z,48.12
2023-04-21T19:31:47.069Z,48.25
2023-04-21T19:34:21.097Z,48.88
2023-04-21T19:36:53.497Z,48.77
2023-04-21T19:39:35.482Z,49.23
2023-04-21T19:42:08.107Z,49.51
2023-04-21T19:44:37.703Z,49.54
2023-04-21T19:47:10.417Z,49.79
2023-04-21T19:49:43.624Z,49.67
2023-04-21T19:52:20.924Z,49.57
2023-04-21T19:54:55.938Z,49.65
2023-04-21T19:57:27.154Z,49.75
2023-04-21T19:59:58.767Z,49.78
2023-04-21T20:02:37.759Z,49.59
2023-04-21T20:05:16.241Z,49.89
2023-04-21T20:07:46.899Z,49.51
2023-04-21T20:10:25.657Z,49.50
2023-04-21T20:12:56.243Z,50.01
2023-04-21T20:15:30.093Z,49.89
2023-04-21T20:17:59.529Z,50.00
2023-04-21T20:20:28.911Z,50.08
2023-04-21T20:23:08.808Z,50.27
2023-04-21T20:25:40.387Z,50.02
2023-04-21T20:28:11.612Z,50.41
2023-04-21T20:30:44.590Z,50.20
2023-04-21T20:33:19.427Z,49.97
2023-04-21T20:35:57.075Z,49.77
2023-04-21T20:38:26.521Z,49.83
2023-04-21T20:41:02.075Z,50.26
2023-04-21T20:43:35.302Z,50.13
2023-04-21T20:46:05.504Z,50.27
2023-04-21T20:48:33.856Z,50.65
2023-04-21T20:51:06.217Z,50.90
2023-04-21T20:53:43.668Z,51.26
2023-04-21T20:56:20.395Z,51.09
2023-04-21T20:58:52.057Z,51.61
2023-04-21T21:01:20.822Z,51.87
2023-04-21T21:03:54.068Z,52.08
2023-04-21T21:06:22.843Z,52.25
2023-04-21T21:09:01.815Z,52.62
2023-04-21T21:11:41.308Z,52.44
2023-04-21T21:14:10.587Z,52.71
2023-04-21T21:16:41.001Z,52.89
2023-04-21T21:19:09.402Z,53.29
2023-04-21T21:21:40.323Z,53.72
2023-04-21T21:24:13.954Z,53.70
2023-04-21T21:26:55.274Z,53.93
2023-04-21T21:29:25.093Z,54.99
2023-04-21T21:31:53.943Z,55.43
2023-04-21T21:34:33.631Z,55.72
2023-04-21T21:37:04.059Z,55.54
2023-04-21T21:39:33.230Z,55.78
2023-04-21T21:42:08.595Z,55.62
2023-04-21T21:44:38.058Z,56.38
2023-04-21T21:47:09.300Z,57.82
2023-04-21T21:49:41.189Z,57.75
2023-04-21T21:52:10.088Z,57.91
2023-04-21T21:54:43.611Z,58.50
2023-04-21T21:57:23.038Z,58.47
2023-04-21T21:59:54.643Z,58.73
2023-04-21T22:02:24.300Z,59.91
2023-04-21T22:04:55.390Z,60.20
2023-04-21T22:07:28.128Z,60.17
2023-04-21T22:09:59.764Z,60.38
2023-04-21T22:12:32.358Z,60.82
2023-04-21T22:15:03.372Z,61.05
2023-04-21T22:17:34.669Z,61.09
2023-04-21T22:20:06.259Z,61.35
2023-04-21T22:22:37.456Z,61.68
2023-04-21T22:25:07.095Z,61.64
2023-04-21T22:27:43.277Z,62.04
2023-04-21T22:30:16.362Z,61.88
2023-04-21T22:32:47.441Z,62.50
2023-04-21T22:35:32.868Z,62.90
2023-04-21T22:38:04.034Z,63.11
2023-04-21T22:40:34.016Z,63.20
2023-04-21T22:43:07.179Z,63.28
2023-04-21T22:45:38.257Z,63.54
2023-04-21T22:48:15.184Z,63.44
2023-04-21T22:50:45.058Z,64.03
2023-04-21T22:53:28.256Z,64.70
2023-04-21T22:56:00.690Z,64.78
2023-04-21T22:58:31.689Z,64.12
2023-04-21T23:01:02.361Z,64.44
2023-04-21T23:03:33.955Z,64.59
2023-04-21T23:06:03.352Z,65.27
2023-04-21T23:08:32.193Z,65.73
2023-04-21T23:11:04.171Z,66.38
2023-04-21T23:13:36.835Z,65.88
2023-04-21T23:16:06.485Z,65.71
2023-04-21T23:18:34.603Z,65.84
2023-04-21T23:21:08.704Z,66.66
2023-04-21T23:23:37.018Z,67.39
2023-04-21T23:26:09.503Z,68.33
2023-04-21T23:28:39.337Z,67.85
2023-04-21T23:31:18.705Z,67.85
2023-04-21T23:33:47.538Z,68.66
2023-04-21T23:36:16.884Z,69.75
2023-04-21T23:38:52.582Z,70.90
2023-04-21T23:41:21.831Z,70.56
2023-04-21T23:43:54.099Z,70.66
2023-04-21T23:46:23.887Z,70.92
2023-04-21T23:48:52.760Z,71.96
2023-04-21T23:51:22.265Z,71.17
2023-04-21T23:54:03.909Z,71.40
2023-04-21T23:56:35.959Z,71.46
2023-04-21T23:59:09.205Z,71.56
